Time;durP1;ratioP1;P1;durP2;ratioP2;P2;SDS_P1;SDS_P2;PMS_P1;PMS_P2;Temp;Humidity;BMP_temperature;BMP_pressure;BME280_temperature;BME280_humidity;BME280_pressure;Samples;Min_cycle;Max_cycle;Signal;HPM_P1;HPM_P2
2023/10/21 00:01:27;;;;;;;6.50;2.30;;;13.40;99.90;;;;;;4139596;28;20040;-71
2023/10/21 00:03:29;;;;;;;5.40;2.65;;;13.50;99.90;;;;;;4142378;28;20068;-70
2023/10/21 00:05:30;;;;;;;6.00;2.70;;;13.50;99.90;;;;;;4140769;28;20072;-71
2023/10/21 00:07:31;;;;;;;3.92;2.10;;;13.50;99.90;;;;;;4141314;28;20273;-72
2023/10/21 00:09:31;;;;;;;6.32;2.40;;;13.40;99.90;;;;;;4138441;28;20034;-72
2023/10/21 00:11:32;;;;;;;3.60;1.92;;;13.50;99.90;;;;;;4142308;28;20030;-71
2023/10/21 00:13:33;;;;;;;4.03;2.30;;;13.50;99.90;;;;;;4146339;28;20496;-72
2023/10/21 00:15:34;;;;;;;3.83;1.80;;;13.50;99.90;;;;;;4139160;28;20045;-72
2023/10/21 00:17:34;;;;;;;4.88;2.17;;;13.50;99.90;;;;;;4140879;28;20034;-72
2023/10/21 00:19:35;;;;;;;3.03;1.80;;;13.50;99.90;;;;;;4139383;28;20048;-71
2023/10/21 00:21:36;;;;;;;4.80;1.80;;;13.50;99.90;;;;;;4142734;28;20053;-72
2023/10/21 00:23:36;;;;;;;3.90;1.75;;;13.50;99.90;;;;;;4148121;28;20038;-72
2023/10/21 00:25:37;;;;;;;3.00;1.60;;;13.50;99.90;;;;;;4140482;28;20453;-71
2023/10/21 00:27:37;;;;;;;3.53;1.50;;;13.50;99.90;;;;;;4146803;28;20038;-72
2023/10/21 00:29:38;;;;;;;2.83;1.38;;;13.50;99.90;;;;;;4138723;28;20058;-72
2023/10/21 00:31:38;;;;;;;3.42;1.30;;;13.50;99.90;;;;;;4138147;28;20345;-71
2023/10/21 00:33:39;;;;;;;2.97;1.50;;;13.50;99.90;;;;;;4140572;28;20034;-72
2023/10/21 00:35:42;;;;;;;3.55;1.60;;;13.50;99.90;;;;;;4150445;28;20071;-72
2023/10/21 00:37:43;;;;;;;3.85;1.60;;;13.50;99.90;;;;;;4144686;28;20061;-72
2023/10/21 00:39:44;;;;;;;3.47;1.67;;;13.50;99.90;;;;;;4141105;28;20517;-72
2023/10/21 00:41:45;;;;;;;4.32;1.52;;;13.50;99.90;;;;;;4144532;28;20211;-72
2023/10/21 00:43:45;;;;;;;3.05;1.52;;;13.50;99.90;;;;;;4141545;28;20096;-71
2023/10/21 00:45:46;;;;;;;2.20;1.50;;;13.50;99.90;;;;;;4151035;28;20171;-72
2023/10/21 00:47:46;;;;;;;2.67;1.13;;;13.50;99.90;;;;;;4155381;28;20029;-73
2023/10/21 00:49:47;;;;;;;2.78;1.48;;;13.50;99.90;;;;;;4157865;28;20473;-72
2023/10/21 00:51:49;;;;;;;2.55;1.45;;;13.50;99.90;;;;;;4157326;28;20502;-72
2023/10/21 00:53:49;;;;;;;2.27;1.33;;;13.50;99.90;;;;;;4159240;28;20347;-72
2023/10/21 00:55:51;;;;;;;2.25;1.33;;;13.50;99.90;;;;;;4153673;28;20072;-72
2023/10/21 00:57:52;;;;;;;1.35;1.10;;;13.50;99.90;;;;;;4156937;28;20044;-72
2023/10/21 00:59:53;;;;;;;2.22;1.20;;;13.50;99.90;;;;;;4155794;28;20033;-72
2023/10/21 01:01:54;;;;;;;2.60;1.50;;;13.50;99.90;;;;;;4154958;28;20041;-72
2023/10/21 01:03:55;;;;;;;1.73;1.10;;;13.50;99.90;;;;;;4156377;28;20025;-72
2023/10/21 01:05:56;;;;;;;1.58;1.02;;;13.50;99.90;;;;;;4154704;28;20044;-72
2023/10/21 01:08:00;;;;;;;1.75;1.20;;;13.50;99.90;;;;;;4157300;28;20117;-72
2023/10/21 01:10:04;;;;;;;1.33;0.95;;;13.50;99.90;;;;;;4156983;28;20044;-72
2023/10/21 01:12:05;;;;;;;1.75;1.20;;;13.50;99.90;;;;;;4164755;28;20048;-72
2023/10/21 01:14:07;;;;;;;1.80;0.90;;;13.60;99.90;;;;;;4144191;28;20037;-72
2023/10/21 01:16:07;;;;;;;2.88;0.90;;;13.60;99.90;;;;;;4149484;28;20116;-72
2023/10/21 01:18:08;;;;;;;1.30;0.90;;;13.60;99.90;;;;;;4157139;28;20029;-72
2023/10/21 01:20:09;;;;;;;3.42;1.25;;;13.60;99.90;;;;;;4156224;28;20046;-72
2023/10/21 01:22:10;;;;;;;1.33;0.98;;;13.60;99.90;;;;;;4157927;28;20038;-72
2023/10/21 01:24:11;;;;;;;1.52;1.00;;;13.60;99.90;;;;;;4159107;28;20034;-72
2023/10/21 01:26:11;;;;;;;1.95;1.20;;;13.70;99.90;;;;;;4159176;28;20064;-72
2023/10/21 01:28:12;;;;;;;2.00;1.30;;;13.60;99.90;;;;;;4159087;28;20048;-72
2023/10/21 01:30:13;;;;;;;1.45;0.88;;;13.60;99.90;;;;;;4156797;28;20385;-73
2023/10/21 01:32:13;;;;;;;1.70;0.80;;;13.60;99.90;;;;;;4166455;28;20033;-72
2023/10/21 01:34:15;;;;;;;1.67;0.85;;;13.60;99.90;;;;;;4165562;28;20033;-72
2023/10/21 01:36:17;;;;;;;1.85;0.77;;;13.60;99.90;;;;;;4159672;28;20401;-72
2023/10/21 01:38:20;;;;;;;1.17;0.93;;;13.70;99.90;;;;;;4160062;28;20045;-71
2023/10/21 01:40:21;;;;;;;1.80;1.20;;;13.60;99.90;;;;;;4158869;28;20034;-72
2023/10/21 01:42:21;;;;;;;2.60;1.08;;;13.70;99.90;;;;;;4164247;28;20492;-72
2023/10/21 01:44:22;;;;;;;1.38;0.93;;;13.70;99.90;;;;;;4159441;28;20033;-72
2023/10/21 01:46:23;;;;;;;1.60;1.13;;;13.70;99.90;;;;;;4158854;28;20057;-71
2023/10/21 01:48:23;;;;;;;2.08;1.20;;;13.70;99.90;;;;;;4160101;28;20042;-72
2023/10/21 01:50:24;;;;;;;1.90;1.20;;;13.70;99.90;;;;;;4157676;28;20168;-72
2023/10/21 01:52:24;;;;;;;1.48;0.95;;;13.70;99.90;;;;;;4161317;28;20045;-71
2023/10/21 01:54:25;;;;;;;1.85;1.05;;;13.70;99.90;;;;;;4159015;28;20474;-71
2023/10/21 01:56:26;;;;;;;2.65;1.13;;;13.70;99.90;;;;;;4157188;28;20057;-71
2023/10/21 01:58:31;;;;;;;1.23;0.90;;;13.70;99.90;;;;;;4159638;28;20513;-72
2023/10/21 02:00:32;;;;;;;2.65;1.30;;;13.70;99.90;;;;;;4156702;28;20041;-72
2023/10/21 02:02:33;;;;;;;2.13;1.10;;;13.70;99.90;;;;;;4158938;28;20041;-72
2023/10/21 02:04:33;;;;;;;3.53;1.13;;;13.80;99.90;;;;;;4160055;28;20033;-75
2023/10/21 02:06:34;;;;;;;5.03;1.13;;;13.70;99.90;;;;;;4146588;28;20084;-74
2023/10/21 02:08:35;;;;;;;1.25;0.80;;;13.80;99.90;;;;;;4154095;28;20042;-74
2023/10/21 02:10:39;;;;;;;2.10;0.88;;;13.70;99.90;;;;;;4155945;28;20041;-74
2023/10/21 02:12:39;;;;;;;2.53;1.20;;;13.80;99.90;;;;;;4158662;28;20427;-74
2023/10/21 02:14:40;;;;;;;3.35;1.00;;;13.70;99.90;;;;;;4167175;28;20082;-74
2023/10/21 02:16:41;;;;;;;3.80;1.08;;;13.80;99.90;;;;;;4156497;28;20065;-74
2023/10/21 02:18:41;;;;;;;3.30;1.27;;;13.80;99.90;;;;;;4155383;28;20038;-74
2023/10/21 02:20:42;;;;;;;0.95;0.85;;;13.80;99.90;;;;;;4157105;28;20053;-74
2023/10/21 02:22:43;;;;;;;1.63;1.02;;;13.80;99.90;;;;;;4148906;28;20061;-74
2023/10/21 02:24:43;;;;;;;3.50;1.48;;;13.80;99.90;;;;;;4155798;28;20442;-75
2023/10/21 02:26:44;;;;;;;2.63;1.50;;;13.80;99.90;;;;;;4158176;28;20482;-75
2023/10/21 02:28:45;;;;;;;2.00;1.00;;;13.80;99.90;;;;;;4160103;28;20037;-74
2023/10/21 02:30:45;;;;;;;1.30;0.93;;;13.80;99.90;;;;;;4156223;28;20129;-75
2023/10/21 02:32:47;;;;;;;3.10;1.33;;;13.80;99.90;;;;;;4159592;28;20481;-75
2023/10/21 02:34:48;;;;;;;3.78;1.02;;;13.80;99.90;;;;;;4158521;28;20041;-74
2023/10/21 02:36:49;;;;;;;2.67;1.33;;;13.80;99.90;;;;;;4158464;28;20029;-74
2023/10/21 02:38:53;;;;;;;1.77;1.05;;;13.80;99.90;;;;;;4158104;28;20045;-74
2023/10/21 02:40:53;;;;;;;1.52;1.10;;;13.80;99.90;;;;;;4156082;28;20134;-74
2023/10/21 02:42:54;;;;;;;3.28;1.30;;;13.80;99.90;;;;;;4159883;28;20111;-74
2023/10/21 02:44:54;;;;;;;1.85;1.17;;;13.80;99.90;;;;;;4156828;28;20048;-75
2023/10/21 02:46:55;;;;;;;1.20;1.02;;;13.80;99.90;;;;;;4155990;28;20540;-74
2023/10/21 02:48:58;;;;;;;3.22;1.45;;;13.80;99.90;;;;;;4157690;28;20054;-74
2023/10/21 02:51:00;;;;;;;2.47;1.25;;;13.80;99.90;;;;;;4158048;28;20050;-74
2023/10/21 02:53:00;;;;;;;1.67;1.40;;;13.80;99.90;;;;;;4160197;28;20022;-74
2023/10/21 02:55:01;;;;;;;2.47;1.10;;;13.90;99.90;;;;;;4158413;28;20068;-75
2023/10/21 02:57:02;;;;;;;2.78;1.30;;;13.90;99.90;;;;;;4156463;28;20441;-74
2023/10/21 02:59:03;;;;;;;1.35;1.00;;;13.90;99.90;;;;;;4158816;28;20125;-75
2023/10/21 03:01:18;;;;;;;2.42;1.15;;;13.90;99.90;;;;;;4155758;28;20116;-74
2023/10/21 03:03:18;;;;;;;1.73;1.15;;;13.90;99.90;;;;;;4146728;28;20026;-74
2023/10/21 03:05:19;;;;;;;1.60;1.10;;;13.90;99.90;;;;;;4157486;28;20129;-74
2023/10/21 03:07:20;;;;;;;7.22;1.10;;;13.90;99.90;;;;;;4158815;28;20053;-75
2023/10/21 03:09:22;;;;;;;3.70;1.15;;;13.90;99.90;;;;;;4158837;28;20033;-74
2023/10/21 03:11:24;;;;;;;2.28;1.17;;;13.90;99.90;;;;;;4165944;28;20040;-74
2023/10/21 03:13:24;;;;;;;2.80;1.20;;;13.90;99.90;;;;;;4157410;28;20108;-71
2023/10/21 03:15:28;;;;;;;1.98;1.15;;;14.00;99.90;;;;;;4155409;28;20502;-67
2023/10/21 03:17:29;;;;;;;2.90;1.15;;;14.00;99.90;;;;;;4154142;28;20120;-67
2023/10/21 03:19:29;;;;;;;1.85;1.13;;;14.00;99.90;;;;;;4156027;28;20041;-67
2023/10/21 03:21:30;;;;;;;1.65;1.00;;;14.00;99.90;;;;;;4156392;28;20041;-67
2023/10/21 03:23:31;;;;;;;1.10;1.00;;;14.00;99.90;;;;;;4157012;28;20052;-67
2023/10/21 03:25:33;;;;;;;1.48;1.02;;;14.00;99.90;;;;;;4158676;28;20034;-67
2023/10/21 03:27:33;;;;;;;2.05;1.33;;;14.00;99.90;;;;;;4156433;28;20553;-67
2023/10/21 03:29:34;;;;;;;1.98;1.23;;;14.00;99.90;;;;;;4152877;28;20037;-67
2023/10/21 03:31:35;;;;;;;1.83;1.27;;;14.00;99.90;;;;;;4157801;28;20037;-67
2023/10/21 03:33:35;;;;;;;1.38;1.17;;;14.00;99.90;;;;;;4156223;28;20497;-67
2023/10/21 03:35:36;;;;;;;2.22;1.30;;;14.00;99.90;;;;;;4159051;28;20091;-67
2023/10/21 03:37:37;;;;;;;2.25;1.10;;;14.00;99.90;;;;;;4156576;28;20042;-67
2023/10/21 03:39:37;;;;;;;1.90;1.30;;;14.00;99.90;;;;;;4152865;28;20041;-67
2023/10/21 03:41:38;;;;;;;1.73;1.23;;;14.00;99.90;;;;;;4165100;28;20025;-68
2023/10/21 03:43:39;;;;;;;1.40;1.15;;;14.00;99.90;;;;;;4162302;28;20852;-68
2023/10/21 03:45:39;;;;;;;2.22;1.45;;;14.10;99.90;;;;;;4152785;28;20041;-68
2023/10/21 03:47:40;;;;;;;2.58;1.25;;;14.00;99.90;;;;;;4157633;28;20033;-68
2023/10/21 03:49:41;;;;;;;3.15;1.60;;;14.00;99.90;;;;;;4149885;28;20120;-68
2023/10/21 03:51:42;;;;;;;3.70;1.35;;;14.00;99.90;;;;;;4157978;28;20064;-69
2023/10/21 03:53:46;;;;;;;2.50;1.30;;;14.00;99.90;;;;;;4156216;28;20033;-69
2023/10/21 03:55:46;;;;;;;3.05;1.23;;;14.10;99.90;;;;;;4162950;28;20527;-69
2023/10/21 03:57:49;;;;;;;1.30;1.20;;;14.10;99.90;;;;;;4163045;28;20042;-69
2023/10/21 03:59:49;;;;;;;2.33;1.50;;;14.10;99.90;;;;;;4157804;28;20042;-70
2023/10/21 04:01:50;;;;;;;1.75;1.20;;;14.10;99.90;;;;;;4154683;28;20099;-70
2023/10/21 04:03:51;;;;;;;2.10;1.48;;;14.10;99.90;;;;;;4156116;28;20033;-69
2023/10/21 04:05:56;;;;;;;1.77;1.40;;;14.10;99.90;;;;;;4163344;28;20094;-69
2023/10/21 04:07:56;;;;;;;2.67;1.42;;;14.10;99.90;;;;;;4156263;28;20040;-69
2023/10/21 04:09:57;;;;;;;2.80;1.52;;;14.00;99.90;;;;;;4157250;28;20029;-69
2023/10/21 04:11:57;;;;;;;3.38;1.60;;;14.10;99.90;;;;;;4161559;28;20037;-69
2023/10/21 04:13:58;;;;;;;2.47;1.55;;;14.10;99.90;;;;;;4158985;28;20037;-68
2023/10/21 04:15:59;;;;;;;2.40;1.27;;;14.10;99.90;;;;;;4155314;28;20482;-69
2023/10/21 04:17:59;;;;;;;4.13;1.40;;;14.10;99.90;;;;;;4157936;28;20116;-68
2023/10/21 04:20:00;;;;;;;3.05;1.38;;;14.10;99.90;;;;;;4162663;28;20345;-69
2023/10/21 04:22:01;;;;;;;3.85;1.60;;;14.10;99.90;;;;;;4163622;28;20092;-68
2023/10/21 04:24:01;;;;;;;2.05;1.50;;;14.10;99.90;;;;;;4157672;28;20060;-67
2023/10/21 04:26:04;;;;;;;1.33;1.10;;;14.10;99.90;;;;;;4153665;28;20040;-67
2023/10/21 04:28:05;;;;;;;3.13;1.60;;;14.10;99.90;;;;;;4156067;28;20694;-67
2023/10/21 04:30:07;;;;;;;3.33;1.55;;;14.10;99.90;;;;;;4157222;28;20036;-67
2023/10/21 04:32:08;;;;;;;;;;;14.10;99.90;;;;;;4155549;28;20504;-66
2023/10/21 04:34:08;;;;;;;2.30;1.40;;;14.10;99.90;;;;;;4157320;28;19952;-66
2023/10/21 04:36:09;;;;;;;3.28;1.42;;;14.10;99.90;;;;;;4154998;28;20073;-66
2023/10/21 04:38:10;;;;;;;4.38;1.80;;;14.10;99.90;;;;;;4152024;28;20042;-66
2023/10/21 04:40:11;;;;;;;3.00;1.30;;;14.10;99.90;;;;;;4156168;28;20093;-67
2023/10/21 04:42:13;;;;;;;2.03;1.30;;;14.10;99.90;;;;;;4151251;28;20471;-66
2023/10/21 04:44:13;;;;;;;3.00;1.10;;;14.10;99.90;;;;;;4142207;28;20133;-66
2023/10/21 04:46:15;;;;;;;2.85;1.52;;;14.00;99.90;;;;;;4152681;28;20029;-66
2023/10/21 04:48:15;;;;;;;2.28;1.40;;;14.10;99.90;;;;;;4136846;28;20034;-66
2023/10/21 04:50:16;;;;;;;2.95;1.40;;;14.10;99.90;;;;;;4156616;28;20523;-66
2023/10/21 04:52:18;;;;;;;2.92;1.20;;;14.10;99.90;;;;;;4147062;28;20061;-66
2023/10/21 04:54:18;;;;;;;3.33;1.25;;;14.10;99.90;;;;;;4155643;28;20040;-66
2023/10/21 04:56:20;;;;;;;1.88;1.00;;;14.10;99.90;;;;;;4157328;28;20067;-66
2023/10/21 04:58:20;;;;;;;0.98;0.90;;;14.00;99.90;;;;;;4158938;28;20029;-67
2023/10/21 05:00:21;;;;;;;2.78;1.33;;;14.10;99.90;;;;;;4157656;28;20438;-67
2023/10/21 05:02:21;;;;;;;1.83;0.90;;;14.10;99.90;;;;;;4161345;28;20045;-67
2023/10/21 05:04:22;;;;;;;2.17;1.48;;;14.10;99.90;;;;;;4160232;28;20037;-66
2023/10/21 05:06:23;;;;;;;1.83;0.98;;;14.10;99.90;;;;;;4158489;28;20044;-66
2023/10/21 05:08:24;;;;;;;2.50;1.30;;;14.10;99.90;;;;;;4159766;28;20046;-67
2023/10/21 05:10:24;;;;;;;3.22;1.30;;;14.10;99.90;;;;;;4158376;28;20120;-66
2023/10/21 05:12:25;;;;;;;1.45;1.10;;;14.10;99.90;;;;;;4159351;28;20037;-66
2023/10/21 05:14:26;;;;;;;1.77;1.35;;;14.10;99.90;;;;;;4156848;28;20393;-66
2023/10/21 05:16:26;;;;;;;2.00;0.95;;;14.10;99.90;;;;;;4154662;28;20076;-71
2023/10/21 05:18:27;;;;;;;2.40;1.30;;;14.10;99.90;;;;;;4159099;28;20042;-71
2023/10/21 05:20:28;;;;;;;1.95;1.20;;;14.10;99.90;;;;;;4157401;28;20045;-71
2023/10/21 05:22:28;;;;;;;1.33;1.10;;;14.10;99.90;;;;;;4154215;28;20041;-71
2023/10/21 05:24:29;;;;;;;1.95;1.23;;;14.10;99.90;;;;;;4160299;28;20041;-71
2023/10/21 05:26:30;;;;;;;1.48;1.00;;;14.10;99.90;;;;;;4142432;28;20037;-71
2023/10/21 05:28:31;;;;;;;3.13;1.25;;;14.10;99.90;;;;;;4154927;28;20069;-71
2023/10/21 05:30:32;;;;;;;1.60;1.00;;;14.10;99.90;;;;;;4151641;28;20141;-71
2023/10/21 05:32:32;;;;;;;2.03;1.30;;;14.10;99.90;;;;;;4159033;28;20037;-71
2023/10/21 05:34:33;;;;;;;2.30;1.27;;;14.10;99.90;;;;;;4158092;28;20037;-69
2023/10/21 05:36:34;;;;;;;2.10;1.20;;;14.10;99.90;;;;;;4155302;28;20038;-69
2023/10/21 05:38:34;;;;;;;1.63;0.90;;;14.10;99.90;;;;;;4155959;28;20053;-68
2023/10/21 05:40:35;;;;;;;3.58;1.30;;;14.10;99.90;;;;;;4156481;28;20065;-68
2023/10/21 05:42:35;;;;;;;1.45;0.90;;;14.10;99.90;;;;;;4154712;28;20037;-68
2023/10/21 05:44:36;;;;;;;2.80;1.08;;;14.10;99.90;;;;;;4157278;28;20398;-68
2023/10/21 05:46:37;;;;;;;0.80;0.65;;;14.10;99.90;;;;;;4153511;28;20038;-68
2023/10/21 05:48:38;;;;;;;1.02;0.80;;;14.10;99.90;;;;;;4159013;28;20048;-68
2023/10/21 05:50:38;;;;;;;0.80;0.68;;;14.10;99.90;;;;;;4158811;28;20064;-69
2023/10/21 05:52:39;;;;;;;1.13;0.68;;;14.10;99.90;;;;;;4162775;28;20041;-68
2023/10/21 05:54:39;;;;;;;3.30;1.15;;;14.10;99.90;;;;;;4157262;28;20468;-68
2023/10/21 05:56:40;;;;;;;1.40;1.00;;;14.10;99.90;;;;;;4153693;28;20041;-68
2023/10/21 05:58:41;;;;;;;2.13;0.90;;;14.00;99.90;;;;;;4158158;28;20498;-68
2023/10/21 06:00:41;;;;;;;2.28;1.00;;;14.10;99.90;;;;;;4155951;28;20401;-68
2023/10/21 06:02:42;;;;;;;2.15;0.88;;;14.10;99.90;;;;;;4159116;28;20029;-68
2023/10/21 06:04:42;;;;;;;1.45;1.05;;;14.00;99.90;;;;;;4158841;28;20053;-68
2023/10/21 06:06:44;;;;;;;2.00;1.00;;;14.00;99.90;;;;;;4158215;28;20034;-68
2023/10/21 06:08:45;;;;;;;0.68;0.68;;;14.00;99.90;;;;;;4158949;28;20037;-68
2023/10/21 06:10:46;;;;;;;2.33;1.15;;;14.10;99.90;;;;;;4158390;28;20533;-68
2023/10/21 06:12:47;;;;;;;1.60;1.00;;;14.00;99.90;;;;;;4157844;28;20401;-68
2023/10/21 06:14:47;;;;;;;1.33;0.90;;;14.00;99.90;;;;;;4156399;28;20041;-68
2023/10/21 06:16:48;;;;;;;1.40;0.90;;;14.00;99.90;;;;;;4157648;28;20037;-68
2023/10/21 06:18:49;;;;;;;2.70;0.80;;;13.90;99.90;;;;;;4156787;28;20059;-68
2023/10/21 06:20:49;;;;;;;1.25;0.95;;;14.00;99.90;;;;;;4156983;28;20053;-67
2023/10/21 06:22:51;;;;;;;1.90;1.13;;;14.00;99.90;;;;;;4165967;28;20036;-68
2023/10/21 06:24:51;;;;;;;1.23;0.90;;;14.00;99.90;;;;;;4156369;28;20038;-68
2023/10/21 06:26:52;;;;;;;1.23;0.95;;;14.00;99.90;;;;;;4158716;28;20035;-68
2023/10/21 06:28:53;;;;;;;1.55;0.65;;;14.00;99.90;;;;;;4156722;28;20072;-68
2023/10/21 06:30:53;;;;;;;1.83;1.10;;;14.10;99.90;;;;;;4155297;28;20041;-68
2023/10/21 06:32:54;;;;;;;1.77;1.17;;;14.10;99.90;;;;;;4170341;28;20033;-68
2023/10/21 06:34:54;;;;;;;2.63;1.25;;;14.10;99.90;;;;;;4162702;28;20046;-68
2023/10/21 06:36:55;;;;;;;1.73;1.10;;;14.10;99.90;;;;;;4155881;28;20128;-69
2023/10/21 06:38:55;;;;;;;3.33;1.52;;;14.10;99.90;;;;;;4159871;28;20033;-69
2023/10/21 06:40:56;;;;;;;1.95;1.35;;;14.10;99.90;;;;;;4149043;28;20372;-69
2023/10/21 06:42:57;;;;;;;2.67;1.35;;;14.10;99.90;;;;;;4161162;28;20034;-69
2023/10/21 06:44:58;;;;;;;4.28;1.60;;;14.00;99.90;;;;;;4160983;28;20090;-68
2023/10/21 06:46:59;;;;;;;2.83;1.23;;;14.10;99.90;;;;;;4155657;28;20032;-69
2023/10/21 06:48:59;;;;;;;2.15;1.10;;;14.10;99.90;;;;;;4162970;28;20045;-68
2023/10/21 06:51:00;;;;;;;2.00;1.20;;;14.00;99.90;;;;;;4160600;28;20030;-69
2023/10/21 06:53:01;;;;;;;3.17;1.30;;;14.10;99.90;;;;;;4170093;28;20482;-69
2023/10/21 06:55:01;;;;;;;1.88;1.35;;;14.10;99.90;;;;;;4156556;28;20090;-69
2023/10/21 06:57:02;;;;;;;2.47;1.30;;;14.10;99.90;;;;;;4170847;28;20040;-68
2023/10/21 06:59:03;;;;;;;2.53;1.35;;;14.10;99.90;;;;;;4157944;28;20048;-68
2023/10/21 07:01:04;;;;;;;2.92;1.35;;;14.10;99.90;;;;;;4156302;28;20470;-69
2023/10/21 07:03:05;;;;;;;2.60;1.10;;;14.10;99.90;;;;;;4161314;28;20065;-68
2023/10/21 07:05:09;;;;;;;1.92;1.10;;;14.10;99.90;;;;;;4156820;28;20135;-68
2023/10/21 07:07:10;;;;;;;2.42;1.30;;;14.20;99.90;;;;;;4158710;28;20034;-69
2023/10/21 07:09:11;;;;;;;1.38;0.98;;;14.10;99.90;;;;;;4163785;28;20579;-69
2023/10/21 07:11:12;;;;;;;3.17;1.35;;;14.20;99.90;;;;;;4157358;28;20057;-68
2023/10/21 07:13:13;;;;;;;4.15;1.00;;;14.20;99.90;;;;;;4160766;28;20044;-68
2023/10/21 07:15:14;;;;;;;2.22;1.20;;;14.10;99.90;;;;;;4155450;28;20045;-69
2023/10/21 07:17:15;;;;;;;2.30;0.90;;;14.10;99.90;;;;;;4157589;28;20077;-68
2023/10/21 07:19:16;;;;;;;3.60;0.90;;;14.20;99.90;;;;;;4150160;28;20413;-69
2023/10/21 07:21:16;;;;;;;2.30;0.85;;;14.20;99.90;;;;;;4154590;28;20046;-68
2023/10/21 07:23:17;;;;;;;1.75;0.88;;;14.20;99.90;;;;;;4159188;28;20029;-69
2023/10/21 07:25:20;;;;;;;3.20;1.00;;;14.20;99.90;;;;;;4154711;28;20104;-69
2023/10/21 07:27:21;;;;;;;2.40;0.90;;;14.20;99.90;;;;;;4147399;28;20065;-68
2023/10/21 07:29:22;;;;;;;2.08;1.02;;;14.20;99.90;;;;;;4164303;28;20075;-68
2023/10/21 07:31:22;;;;;;;1.50;0.63;;;14.30;99.90;;;;;;4157307;28;20029;-69
2023/10/21 07:33:23;;;;;;;1.88;0.98;;;14.30;99.90;;;;;;4160617;28;20116;-68
2023/10/21 07:35:24;;;;;;;1.85;0.90;;;14.30;99.90;;;;;;4156942;28;20077;-68
2023/10/21 07:37:26;;;;;;;1.02;0.55;;;14.30;99.90;;;;;;4158792;28;20080;-68
2023/10/21 07:39:27;;;;;;;3.05;0.88;;;14.30;99.90;;;;;;4157283;28;20044;-68
2023/10/21 07:41:27;;;;;;;0.90;0.47;;;14.40;99.90;;;;;;4159487;28;20040;-69
2023/10/21 07:43:28;;;;;;;0.93;0.57;;;14.30;99.90;;;;;;4157385;28;20033;-68
2023/10/21 07:45:29;;;;;;;1.17;0.60;;;14.40;99.90;;;;;;4154537;28;20060;-69
2023/10/21 07:47:29;;;;;;;2.70;1.00;;;14.40;99.90;;;;;;4154454;28;20033;-69
2023/10/21 07:49:31;;;;;;;0.77;0.40;;;14.40;99.90;;;;;;4156655;28;20128;-69
2023/10/21 07:51:32;;;;;;;2.30;0.80;;;14.40;99.90;;;;;;4157240;28;20451;-69
2023/10/21 07:53:34;;;;;;;1.27;0.40;;;14.40;99.90;;;;;;4158540;28;20053;-70
2023/10/21 07:55:34;;;;;;;0.40;0.40;;;14.40;99.90;;;;;;4155315;28;20033;-70
2023/10/21 07:57:35;;;;;;;0.77;0.30;;;14.40;99.90;;;;;;4157282;28;20208;-70
2023/10/21 07:59:36;;;;;;;3.08;0.25;;;14.40;99.90;;;;;;4156763;28;20047;-71
2023/10/21 08:01:37;;;;;;;0.17;0.17;;;14.30;99.90;;;;;;4150776;28;20865;-71
2023/10/21 08:03:38;;;;;;;0.90;0.22;;;14.40;99.90;;;;;;4156291;28;20398;-71
2023/10/21 08:05:38;;;;;;;1.67;0.43;;;14.40;99.90;;;;;;4156699;28;20105;-70
2023/10/21 08:07:39;;;;;;;2.25;0.35;;;14.40;99.90;;;;;;4153829;28;20041;-71
2023/10/21 08:09:40;;;;;;;0.30;0.20;;;14.40;99.90;;;;;;4156627;28;20076;-71
2023/10/21 08:11:44;;;;;;;1.52;0.40;;;14.60;99.90;;;;;;4155423;28;20029;-70
2023/10/21 08:13:45;;;;;;;1.60;0.30;;;14.80;99.90;;;;;;4155112;28;20650;-70
2023/10/21 08:15:45;;;;;;;0.45;0.30;;;15.00;99.90;;;;;;4153360;28;21578;-70
2023/10/21 08:17:47;;;;;;;0.85;0.20;;;15.30;99.90;;;;;;4155522;28;20045;-70
2023/10/21 08:19:47;;;;;;;0.20;0.20;;;15.60;99.90;;;;;;4153862;28;20486;-70
2023/10/21 08:21:48;;;;;;;1.20;0.40;;;15.70;99.90;;;;;;4155522;28;20034;-70
2023/10/21 08:23:49;;;;;;;2.22;0.13;;;15.70;99.90;;;;;;4153676;28;20039;-70
2023/10/21 08:25:49;;;;;;;0.52;0.35;;;15.70;99.90;;;;;;4153568;28;20087;-71
2023/10/21 08:27:50;;;;;;;0.73;0.30;;;15.80;99.90;;;;;;4156581;28;20030;-70
2023/10/21 08:29:50;;;;;;;0.85;0.20;;;15.70;99.90;;;;;;4155316;28;20053;-70
2023/10/21 08:31:51;;;;;;;0.70;0.17;;;15.60;99.90;;;;;;4156341;28;20052;-70
2023/10/21 08:33:52;;;;;;;2.38;0.13;;;15.60;99.90;;;;;;4160391;28;20041;-71
2023/10/21 08:35:53;;;;;;;0.40;0.20;;;15.60;99.90;;;;;;4160027;28;20045;-70
2023/10/21 08:37:54;;;;;;;1.65;0.40;;;15.50;99.90;;;;;;4161569;28;20029;-71
2023/10/21 08:39:54;;;;;;;0.20;0.20;;;15.40;99.90;;;;;;4160052;28;20390;-70
2023/10/21 08:41:55;;;;;;;2.72;0.40;;;15.40;99.90;;;;;;4159367;28;20026;-70
2023/10/21 08:43:56;;;;;;;0.50;0.40;;;15.30;99.90;;;;;;4150025;28;20572;-71
2023/10/21 08:45:56;;;;;;;1.15;0.30;;;15.40;99.90;;;;;;4156543;28;20048;-71
2023/10/21 08:47:58;;;;;;;1.25;0.40;;;15.40;99.90;;;;;;4160472;28;20102;-72
2023/10/21 08:49:59;;;;;;;0.52;0.30;;;15.40;99.90;;;;;;4157374;28;20048;-71
2023/10/21 08:52:02;;;;;;;0.90;0.67;;;15.40;99.90;;;;;;4159654;28;20469;-72
2023/10/21 08:54:03;;;;;;;0.85;0.30;;;15.40;99.90;;;;;;4160196;28;20391;-71
2023/10/21 08:56:04;;;;;;;0.57;0.30;;;15.60;99.90;;;;;;4156582;28;20033;-71
2023/10/21 08:58:06;;;;;;;1.17;0.35;;;15.70;99.90;;;;;;4159946;28;20056;-70
2023/10/21 09:00:10;;;;;;;0.90;0.28;;;15.80;99.90;;;;;;4158818;28;20084;-72
2023/10/21 09:02:10;;;;;;;2.03;0.50;;;15.80;99.90;;;;;;4159515;28;20157;-71
2023/10/21 09:04:13;;;;;;;1.83;0.30;;;15.80;99.90;;;;;;4161403;28;20559;-71
2023/10/21 09:06:14;;;;;;;2.08;0.28;;;15.90;99.90;;;;;;4155244;28;20044;-71
2023/10/21 09:08:15;;;;;;;0.85;0.50;;;16.10;99.90;;;;;;4160371;28;20033;-71
2023/10/21 09:10:17;;;;;;;0.50;0.32;;;16.10;99.90;;;;;;4157922;28;20041;-71
2023/10/21 09:12:17;;;;;;;1.10;0.50;;;16.10;99.90;;;;;;4155541;28;20080;-71
2023/10/21 09:14:18;;;;;;;0.57;0.30;;;16.10;99.90;;;;;;4160039;28;20030;-71
2023/10/21 09:16:23;;;;;;;1.33;0.50;;;15.90;99.90;;;;;;4159291;28;20037;-71
2023/10/21 09:18:24;;;;;;;2.60;0.60;;;15.90;99.90;;;;;;4158143;28;20029;-71
2023/10/21 09:20:25;;;;;;;1.90;0.45;;;15.80;99.90;;;;;;4155630;28;20075;-71
2023/10/21 09:22:27;;;;;;;1.95;0.50;;;15.80;99.90;;;;;;4161225;28;20033;-71
2023/10/21 09:24:28;;;;;;;1.83;0.50;;;15.70;99.90;;;;;;4159158;28;20072;-71
2023/10/21 09:26:43;;;;;;;1.67;0.47;;;15.60;99.90;;;;;;4157702;28;20478;-71
2023/10/21 09:28:43;;;;;;;0.93;0.47;;;15.50;99.90;;;;;;4157545;28;20112;-71
2023/10/21 09:30:56;;;;;;;1.55;0.73;;;15.50;99.90;;;;;;4154175;28;20026;-71
2023/10/21 09:33:15;;;;;;;0.88;0.35;;;15.50;99.90;;;;;;4159574;28;20034;-71
2023/10/21 09:35:26;;;;;;;0.70;0.30;;;15.50;99.90;;;;;;4154319;28;20030;-71
2023/10/21 09:37:29;;;;;;;2.58;0.60;;;15.50;99.90;;;;;;4158516;28;20481;-71
2023/10/21 09:39:38;;;;;;;1.60;0.43;;;15.50;99.90;;;;;;4156520;28;20560;-70
2023/10/21 09:41:42;;;;;;;0.60;0.40;;;15.50;99.90;;;;;;4159138;28;20036;-71
2023/10/21 09:43:46;;;;;;;1.85;0.60;;;15.50;99.90;;;;;;4158694;28;20033;-71
2023/10/21 09:45:48;;;;;;;2.88;0.60;;;15.60;99.90;;;;;;4152525;28;20042;-71
2023/10/21 09:47:52;;;;;;;1.23;0.60;;;15.70;99.90;;;;;;4157944;28;20454;-71
2023/10/21 09:49:56;;;;;;;1.58;0.50;;;15.70;99.90;;;;;;4157763;28;20403;-71
2023/10/21 09:52:05;;;;;;;1.73;0.68;;;15.80;99.90;;;;;;4158732;28;20049;-71
2023/10/21 09:54:12;;;;;;;0.95;0.50;;;15.90;99.90;;;;;;4159076;28;20409;-71
2023/10/21 09:56:15;;;;;;;0.75;0.47;;;16.00;99.90;;;;;;4157682;28;20034;-71
2023/10/21 09:58:17;;;;;;;2.85;1.00;;;16.10;99.90;;;;;;4156584;28;20049;-71
2023/10/21 10:00:20;;;;;;;1.40;0.38;;;16.20;99.90;;;;;;4155159;28;20120;-71
2023/10/21 10:02:21;;;;;;;1.75;0.50;;;16.20;99.90;;;;;;4161849;28;20040;-71
2023/10/21 10:04:23;;;;;;;2.17;0.80;;;16.30;99.90;;;;;;4154483;28;20486;-71
2023/10/21 10:06:28;;;;;;;2.95;0.85;;;16.40;99.90;;;;;;4149113;28;20374;-71
2023/10/21 10:08:33;;;;;;;1.65;0.50;;;16.40;99.90;;;;;;4158095;28;20044;-71
2023/10/21 10:10:38;;;;;;;2.40;0.55;;;16.50;99.90;;;;;;4157900;28;20037;-71
2023/10/21 10:12:44;;;;;;;2.53;0.88;;;16.50;99.90;;;;;;4160889;28;20383;-71
2023/10/21 10:14:45;;;;;;;2.72;0.52;;;16.60;99.90;;;;;;4157691;28;20569;-68
2023/10/21 10:16:45;;;;;;;1.88;0.30;;;16.50;99.90;;;;;;4157898;28;20438;-68
2023/10/21 10:18:48;;;;;;;1.98;0.63;;;16.50;99.90;;;;;;4165661;28;20056;-68
2023/10/21 10:20:50;;;;;;;1.85;0.68;;;16.50;99.90;;;;;;4157546;28;20406;-68
2023/10/21 10:23:01;;;;;;;1.70;0.70;;;16.30;99.90;;;;;;4158921;28;20103;-68
2023/10/21 10:25:10;;;;;;;4.10;0.90;;;16.30;99.90;;;;;;4157776;28;20030;-69
2023/10/21 10:27:11;;;;;;;3.47;0.50;;;16.20;99.90;;;;;;4157300;28;20049;-69
2023/10/21 10:29:27;;;;;;;2.65;0.60;;;16.20;99.90;;;;;;4157523;28;20041;-68
2023/10/21 10:31:30;;;;;;;3.50;0.80;;;16.20;99.90;;;;;;4155541;28;20068;-69
2023/10/21 10:33:31;;;;;;;2.10;0.50;;;16.20;99.90;;;;;;4157618;28;20525;-69